Main page
METAR-TAF:

METAR-TAF

Airports :

Tabuk Regional Airport

Tabuk, Saudi Arabia

latitude: 28-22N, longitude: 036-36E, elevation: 778 m

Current weather observation

The report was made 1 hour and 17 minutes ago, at 18:00 UTC
Wind 5 kt from the South/Southwest
Temperature 21°C
Humidity 49%
Pressure 1015 hPa
Visibility 10 km or more
Scattered clouds at a height of 4000 ft

METAR: OETB 151800Z 21005KT 9999 SCT040 21/10 Q1015 NOSIG

Time: 22:17 (19:17 UTC)

Forecast

The report was made 8 hours and 17 minutes ago, at 11:00 UTC
Forecast valid from 15 at 12 UTC to 16 at 18 UTC
Wind 15 kt from the West
Visibility: 8000 m
Few clouds at a height of 4000 ft
Becoming
from 15 at 20 UTC to 15 at 22 UTC
Wind 3 kt from variable directions

TAF: OETB 151100Z 1512/1618 26015KT 8000 FEW040 BECMG 1520/1522 VRB03KT

Weather observations and forecasts of more than 4000 airports (METAR and TAF reports).

The available stations are represented by yellow and red dots on the map.

Hover mouse over dot to see the name of the station.

Then click to see weather observations and forecasts.

To change the map : click on the green buttons with a black cross to zoom in, on the green button with a dash to zoom out, or on the green arrows for adjacent maps.


METAR-TAF: